sensor_id;sensor_type;location;lat;lon;timestamp;P1;durP1;ratioP1;P2;durP2;ratioP2
10299;SDS011;5195;48.562;9.192;2022-08-03T00:01:16;4.13;;;3.93;;
10299;SDS011;5195;48.562;9.192;2022-08-03T00:03:41;4.65;;;4.35;;
10299;SDS011;5195;48.562;9.192;2022-08-03T00:06:08;4.30;;;4.10;;
10299;SDS011;5195;48.562;9.192;2022-08-03T00:08:33;4.50;;;4.20;;
10299;SDS011;5195;48.562;9.192;2022-08-03T00:10:59;3.80;;;3.60;;
10299;SDS011;5195;48.562;9.192;2022-08-03T00:13:24;3.90;;;3.70;;
10299;SDS011;5195;48.562;9.192;2022-08-03T00:15:50;4.13;;;3.93;;
10299;SDS011;5195;48.562;9.192;2022-08-03T00:18:15;4.20;;;4.00;;
10299;SDS011;5195;48.562;9.192;2022-08-03T00:20:41;4.37;;;4.15;;
10299;SDS011;5195;48.562;9.192;2022-08-03T00:23:06;4.53;;;4.22;;
10299;SDS011;5195;48.562;9.192;2022-08-03T00:25:33;4.18;;;3.97;;
10299;SDS011;5195;48.562;9.192;2022-08-03T00:28:02;4.10;;;3.90;;
10299;SDS011;5195;48.562;9.192;2022-08-03T00:30:27;4.12;;;3.92;;
10299;SDS011;5195;48.562;9.192;2022-08-03T00:32:52;3.90;;;3.70;;
10299;SDS011;5195;48.562;9.192;2022-08-03T00:35:18;4.25;;;3.95;;
10299;SDS011;5195;48.562;9.192;2022-08-03T00:37:43;3.92;;;3.62;;
10299;SDS011;5195;48.562;9.192;2022-08-03T00:40:10;4.23;;;4.00;;
10299;SDS011;5195;48.562;9.192;2022-08-03T00:42:44;6.03;;;3.87;;
10299;SDS011;5195;48.562;9.192;2022-08-03T00:45:00;5.15;;;3.80;;
10299;SDS011;5195;48.562;9.192;2022-08-03T00:47:26;4.33;;;4.13;;
10299;SDS011;5195;48.562;9.192;2022-08-03T00:49:52;4.60;;;4.30;;
10299;SDS011;5195;48.562;9.192;2022-08-03T00:52:17;4.50;;;4.20;;
10299;SDS011;5195;48.562;9.192;2022-08-03T00:54:43;4.23;;;4.00;;
10299;SDS011;5195;48.562;9.192;2022-08-03T00:57:08;4.80;;;4.40;;
10299;SDS011;5195;48.562;9.192;2022-08-03T00:59:35;4.60;;;4.35;;
10299;SDS011;5195;48.562;9.192;2022-08-03T01:02:00;5.07;;;3.97;;
10299;SDS011;5195;48.562;9.192;2022-08-03T01:04:26;4.13;;;3.83;;
10299;SDS011;5195;48.562;9.192;2022-08-03T01:06:56;4.27;;;4.03;;
10299;SDS011;5195;48.562;9.192;2022-08-03T01:09:31;4.07;;;3.87;;
10299;SDS011;5195;48.562;9.192;2022-08-03T01:14:26;4.43;;;4.20;;
10299;SDS011;5195;48.562;9.192;2022-08-03T01:28:19;4.20;;;4.00;;
10299;SDS011;5195;48.562;9.192;2022-08-03T01:31:03;4.60;;;4.40;;
10299;SDS011;5195;48.562;9.192;2022-08-03T01:33:27;4.20;;;3.97;;
10299;SDS011;5195;48.562;9.192;2022-08-03T01:35:59;4.57;;;4.28;;
10299;SDS011;5195;48.562;9.192;2022-08-03T01:38:25;4.80;;;4.40;;
10299;SDS011;5195;48.562;9.192;2022-08-03T01:40:49;4.78;;;4.57;;
10299;SDS011;5195;48.562;9.192;2022-08-03T01:43:15;4.47;;;4.27;;
10299;SDS011;5195;48.562;9.192;2022-08-03T01:45:41;4.60;;;4.30;;
10299;SDS011;5195;48.562;9.192;2022-08-03T01:48:07;4.80;;;4.50;;
10299;SDS011;5195;48.562;9.192;2022-08-03T01:50:33;4.50;;;4.30;;
10299;SDS011;5195;48.562;9.192;2022-08-03T01:53:00;4.80;;;4.50;;
10299;SDS011;5195;48.562;9.192;2022-08-03T01:55:26;4.50;;;4.30;;
10299;SDS011;5195;48.562;9.192;2022-08-03T01:57:53;4.90;;;4.60;;
10299;SDS011;5195;48.562;9.192;2022-08-03T02:00:19;4.60;;;4.30;;
10299;SDS011;5195;48.562;9.192;2022-08-03T02:02:46;4.47;;;4.17;;
10299;SDS011;5195;48.562;9.192;2022-08-03T02:05:10;4.78;;;4.47;;
10299;SDS011;5195;48.562;9.192;2022-08-03T02:07:39;4.57;;;4.27;;
10299;SDS011;5195;48.562;9.192;2022-08-03T02:10:04;4.63;;;4.33;;
10299;SDS011;5195;48.562;9.192;2022-08-03T02:12:30;4.27;;;4.07;;
10299;SDS011;5195;48.562;9.192;2022-08-03T02:14:55;4.72;;;4.43;;
10299;SDS011;5195;48.562;9.192;2022-08-03T02:17:21;5.00;;;4.63;;
10299;SDS011;5195;48.562;9.192;2022-08-03T02:19:47;5.03;;;4.80;;
10299;SDS011;5195;48.562;9.192;2022-08-03T02:22:13;5.35;;;4.95;;
10299;SDS011;5195;48.562;9.192;2022-08-03T02:24:39;4.90;;;4.50;;
10299;SDS011;5195;48.562;9.192;2022-08-03T02:27:07;4.93;;;4.53;;
10299;SDS011;5195;48.562;9.192;2022-08-03T02:29:31;4.63;;;4.43;;
10299;SDS011;5195;48.562;9.192;2022-08-03T02:31:56;4.97;;;4.77;;
10299;SDS011;5195;48.562;9.192;2022-08-03T02:34:22;4.97;;;4.67;;
10299;SDS011;5195;48.562;9.192;2022-08-03T02:36:49;5.80;;;5.27;;
10299;SDS011;5195;48.562;9.192;2022-08-03T02:39:14;5.60;;;5.30;;
10299;SDS011;5195;48.562;9.192;2022-08-03T02:41:41;6.00;;;5.60;;
10299;SDS011;5195;48.562;9.192;2022-08-03T02:44:09;5.00;;;4.70;;
10299;SDS011;5195;48.562;9.192;2022-08-03T02:46:35;5.77;;;5.37;;
10299;SDS011;5195;48.562;9.192;2022-08-03T02:49:03;5.50;;;5.20;;
10299;SDS011;5195;48.562;9.192;2022-08-03T02:51:29;5.78;;;5.37;;
10299;SDS011;5195;48.562;9.192;2022-08-03T02:53:54;5.23;;;4.80;;
10299;SDS011;5195;48.562;9.192;2022-08-03T02:56:19;5.30;;;5.03;;
10299;SDS011;5195;48.562;9.192;2022-08-03T02:58:45;5.00;;;4.70;;
10299;SDS011;5195;48.562;9.192;2022-08-03T03:01:11;5.47;;;5.00;;
10299;SDS011;5195;48.562;9.192;2022-08-03T03:03:37;5.80;;;5.43;;
10299;SDS011;5195;48.562;9.192;2022-08-03T03:06:02;5.32;;;5.03;;
10299;SDS011;5195;48.562;9.192;2022-08-03T03:08:28;5.03;;;4.73;;
10299;SDS011;5195;48.562;9.192;2022-08-03T03:10:55;5.33;;;4.97;;
10299;SDS011;5195;48.562;9.192;2022-08-03T03:13:20;4.60;;;4.40;;
10299;SDS011;5195;48.562;9.192;2022-08-03T03:15:46;5.13;;;4.73;;
10299;SDS011;5195;48.562;9.192;2022-08-03T03:18:11;5.75;;;5.35;;
10299;SDS011;5195;48.562;9.192;2022-08-03T03:20:37;5.40;;;5.10;;
10299;SDS011;5195;48.562;9.192;2022-08-03T03:23:03;4.77;;;4.57;;
10299;SDS011;5195;48.562;9.192;2022-08-03T03:25:31;5.47;;;5.17;;
10299;SDS011;5195;48.562;9.192;2022-08-03T03:28:02;5.23;;;4.93;;
10299;SDS011;5195;48.562;9.192;2022-08-03T03:30:29;5.40;;;5.10;;
10299;SDS011;5195;48.562;9.192;2022-08-03T03:32:55;5.30;;;5.00;;
10299;SDS011;5195;48.562;9.192;2022-08-03T03:35:20;4.80;;;4.60;;
10299;SDS011;5195;48.562;9.192;2022-08-03T03:37:46;5.33;;;4.93;;
10299;SDS011;5195;48.562;9.192;2022-08-03T03:40:11;5.60;;;5.20;;
10299;SDS011;5195;48.562;9.192;2022-08-03T03:42:37;4.50;;;4.20;;
10299;SDS011;5195;48.562;9.192;2022-08-03T03:45:03;5.70;;;5.30;;
10299;SDS011;5195;48.562;9.192;2022-08-03T03:47:28;5.13;;;4.73;;
10299;SDS011;5195;48.562;9.192;2022-08-03T03:49:54;4.87;;;4.57;;
10299;SDS011;5195;48.562;9.192;2022-08-03T03:52:20;4.87;;;4.33;;
10299;SDS011;5195;48.562;9.192;2022-08-03T03:54:46;5.10;;;4.70;;
10299;SDS011;5195;48.562;9.192;2022-08-03T03:57:11;5.32;;;5.00;;
10299;SDS011;5195;48.562;9.192;2022-08-03T03:59:37;5.23;;;4.93;;
10299;SDS011;5195;48.562;9.192;2022-08-03T04:02:02;5.30;;;4.90;;
10299;SDS011;5195;48.562;9.192;2022-08-03T04:04:28;5.50;;;5.00;;
10299;SDS011;5195;48.562;9.192;2022-08-03T04:07:13;5.87;;;5.40;;
10299;SDS011;5195;48.562;9.192;2022-08-03T04:09:59;5.60;;;5.30;;
10299;SDS011;5195;48.562;9.192;2022-08-03T04:12:44;5.10;;;4.73;;
10299;SDS011;5195;48.562;9.192;2022-08-03T04:15:11;5.17;;;4.93;;
10299;SDS011;5195;48.562;9.192;2022-08-03T04:17:37;4.93;;;4.72;;
10299;SDS011;5195;48.562;9.192;2022-08-03T04:20:05;5.37;;;5.00;;
10299;SDS011;5195;48.562;9.192;2022-08-03T04:22:31;5.37;;;5.07;;
10299;SDS011;5195;48.562;9.192;2022-08-03T04:25:04;5.07;;;4.77;;
10299;SDS011;5195;48.562;9.192;2022-08-03T04:27:26;4.80;;;4.30;;
10299;SDS011;5195;48.562;9.192;2022-08-03T04:29:51;5.37;;;5.07;;
10299;SDS011;5195;48.562;9.192;2022-08-03T04:32:17;5.40;;;5.10;;
10299;SDS011;5195;48.562;9.192;2022-08-03T04:34:43;5.43;;;4.63;;
10299;SDS011;5195;48.562;9.192;2022-08-03T04:37:11;5.30;;;5.00;;
10299;SDS011;5195;48.562;9.192;2022-08-03T04:39:36;4.50;;;4.20;;
10299;SDS011;5195;48.562;9.192;2022-08-03T04:42:02;5.45;;;5.05;;
10299;SDS011;5195;48.562;9.192;2022-08-03T04:44:27;5.60;;;5.20;;
10299;SDS011;5195;48.562;9.192;2022-08-03T04:46:53;5.57;;;5.28;;
10299;SDS011;5195;48.562;9.192;2022-08-03T04:49:19;4.57;;;4.37;;
10299;SDS011;5195;48.562;9.192;2022-08-03T04:51:44;5.20;;;5.00;;
10299;SDS011;5195;48.562;9.192;2022-08-03T04:54:12;4.83;;;4.53;;
10299;SDS011;5195;48.562;9.192;2022-08-03T04:56:39;5.17;;;4.77;;
10299;SDS011;5195;48.562;9.192;2022-08-03T04:59:03;5.40;;;5.03;;
10299;SDS011;5195;48.562;9.192;2022-08-03T05:01:29;5.77;;;5.47;;
10299;SDS011;5195;48.562;9.192;2022-08-03T05:03:55;5.05;;;4.85;;
10299;SDS011;5195;48.562;9.192;2022-08-03T05:06:20;5.70;;;5.30;;
10299;SDS011;5195;48.562;9.192;2022-08-03T05:08:46;5.50;;;5.10;;
10299;SDS011;5195;48.562;9.192;2022-08-03T05:11:13;5.30;;;4.90;;
10299;SDS011;5195;48.562;9.192;2022-08-03T05:13:38;5.68;;;5.18;;
10299;SDS011;5195;48.562;9.192;2022-08-03T05:16:03;5.27;;;5.00;;
10299;SDS011;5195;48.562;9.192;2022-08-03T05:18:29;5.87;;;5.47;;
10299;SDS011;5195;48.562;9.192;2022-08-03T05:20:55;5.87;;;5.57;;
10299;SDS011;5195;48.562;9.192;2022-08-03T05:23:21;5.73;;;5.43;;
10299;SDS011;5195;48.562;9.192;2022-08-03T05:25:46;5.70;;;5.40;;
10299;SDS011;5195;48.562;9.192;2022-08-03T05:28:12;5.47;;;5.07;;
10299;SDS011;5195;48.562;9.192;2022-08-03T05:30:37;5.60;;;5.10;;
10299;SDS011;5195;48.562;9.192;2022-08-03T05:33:03;4.97;;;4.78;;
10299;SDS011;5195;48.562;9.192;2022-08-03T05:35:29;4.83;;;4.53;;
10299;SDS011;5195;48.562;9.192;2022-08-03T05:37:54;5.00;;;4.70;;
10299;SDS011;5195;48.562;9.192;2022-08-03T05:40:20;4.93;;;4.70;;
10299;SDS011;5195;48.562;9.192;2022-08-03T05:42:45;5.20;;;4.87;;
10299;SDS011;5195;48.562;9.192;2022-08-03T05:45:11;5.47;;;5.13;;
10299;SDS011;5195;48.562;9.192;2022-08-03T05:47:42;5.83;;;5.07;;
10299;SDS011;5195;48.562;9.192;2022-08-03T05:50:07;5.03;;;4.83;;
10299;SDS011;5195;48.562;9.192;2022-08-03T05:52:33;6.60;;;6.03;;
10299;SDS011;5195;48.562;9.192;2022-08-03T05:54:58;5.83;;;5.40;;
10299;SDS011;5195;48.562;9.192;2022-08-03T05:57:24;5.30;;;4.83;;
10299;SDS011;5195;48.562;9.192;2022-08-03T05:59:50;5.40;;;5.10;;
10299;SDS011;5195;48.562;9.192;2022-08-03T06:02:16;5.57;;;5.00;;
10299;SDS011;5195;48.562;9.192;2022-08-03T06:04:41;5.57;;;5.28;;
10299;SDS011;5195;48.562;9.192;2022-08-03T06:07:07;5.70;;;5.27;;
10299;SDS011;5195;48.562;9.192;2022-08-03T06:09:33;5.73;;;5.23;;
10299;SDS011;5195;48.562;9.192;2022-08-03T06:11:58;5.72;;;5.32;;
10299;SDS011;5195;48.562;9.192;2022-08-03T06:14:27;5.73;;;5.33;;
10299;SDS011;5195;48.562;9.192;2022-08-03T06:16:52;6.03;;;5.70;;
10299;SDS011;5195;48.562;9.192;2022-08-03T06:19:18;5.47;;;5.28;;
10299;SDS011;5195;48.562;9.192;2022-08-03T06:21:44;6.07;;;5.75;;
10299;SDS011;5195;48.562;9.192;2022-08-03T06:24:10;5.65;;;5.35;;
10299;SDS011;5195;48.562;9.192;2022-08-03T06:26:35;5.70;;;5.40;;
10299;SDS011;5195;48.562;9.192;2022-08-03T06:29:01;5.65;;;5.35;;
10299;SDS011;5195;48.562;9.192;2022-08-03T06:31:26;6.20;;;5.80;;
10299;SDS011;5195;48.562;9.192;2022-08-03T06:33:54;5.50;;;5.20;;
10299;SDS011;5195;48.562;9.192;2022-08-03T06:36:19;5.70;;;5.40;;
10299;SDS011;5195;48.562;9.192;2022-08-03T06:38:46;5.93;;;5.40;;
10299;SDS011;5195;48.562;9.192;2022-08-03T06:41:11;5.50;;;5.10;;
10299;SDS011;5195;48.562;9.192;2022-08-03T06:43:37;5.70;;;5.30;;
10299;SDS011;5195;48.562;9.192;2022-08-03T06:46:02;5.23;;;4.83;;
10299;SDS011;5195;48.562;9.192;2022-08-03T06:48:28;5.30;;;5.00;;
10299;SDS011;5195;48.562;9.192;2022-08-03T06:50:55;4.83;;;4.60;;
10299;SDS011;5195;48.562;9.192;2022-08-03T06:53:20;5.30;;;4.97;;
10299;SDS011;5195;48.562;9.192;2022-08-03T06:55:46;4.63;;;4.43;;
10299;SDS011;5195;48.562;9.192;2022-08-03T06:58:11;5.00;;;4.43;;
10299;SDS011;5195;48.562;9.192;2022-08-03T07:00:37;5.00;;;4.60;;
10299;SDS011;5195;48.562;9.192;2022-08-03T07:03:03;4.45;;;4.22;;
10299;SDS011;5195;48.562;9.192;2022-08-03T07:05:29;4.90;;;4.60;;
10299;SDS011;5195;48.562;9.192;2022-08-03T07:07:55;4.40;;;4.10;;
10299;SDS011;5195;48.562;9.192;2022-08-03T07:10:20;4.83;;;4.47;;
10299;SDS011;5195;48.562;9.192;2022-08-03T07:12:46;4.67;;;4.33;;
10299;SDS011;5195;48.562;9.192;2022-08-03T07:15:11;4.37;;;4.15;;
10299;SDS011;5195;48.562;9.192;2022-08-03T07:17:38;5.30;;;4.37;;
10299;SDS011;5195;48.562;9.192;2022-08-03T07:20:05;4.40;;;4.10;;
10299;SDS011;5195;48.562;9.192;2022-08-03T07:22:30;4.20;;;4.00;;
10299;SDS011;5195;48.562;9.192;2022-08-03T07:24:56;3.80;;;3.70;;
10299;SDS011;5195;48.562;9.192;2022-08-03T07:27:22;4.10;;;3.87;;
10299;SDS011;5195;48.562;9.192;2022-08-03T07:29:48;3.70;;;3.50;;
10299;SDS011;5195;48.562;9.192;2022-08-03T07:32:14;4.20;;;3.90;;
10299;SDS011;5195;48.562;9.192;2022-08-03T07:34:42;3.83;;;3.50;;
10299;SDS011;5195;48.562;9.192;2022-08-03T07:37:09;3.67;;;3.47;;
10299;SDS011;5195;48.562;9.192;2022-08-03T07:39:34;4.13;;;3.80;;
10299;SDS011;5195;48.562;9.192;2022-08-03T07:42:00;3.23;;;3.13;;
10299;SDS011;5195;48.562;9.192;2022-08-03T07:44:26;3.20;;;3.00;;
10299;SDS011;5195;48.562;9.192;2022-08-03T07:46:51;3.43;;;3.30;;
10299;SDS011;5195;48.562;9.192;2022-08-03T07:49:18;3.37;;;3.17;;
10299;SDS011;5195;48.562;9.192;2022-08-03T07:51:44;3.57;;;3.20;;
10299;SDS011;5195;48.562;9.192;2022-08-03T07:54:09;3.67;;;3.20;;
10299;SDS011;5195;48.562;9.192;2022-08-03T07:56:36;3.70;;;3.50;;
10299;SDS011;5195;48.562;9.192;2022-08-03T07:59:02;3.90;;;3.60;;
10299;SDS011;5195;48.562;9.192;2022-08-03T08:01:30;3.40;;;3.20;;
10299;SDS011;5195;48.562;9.192;2022-08-03T08:03:56;3.60;;;3.20;;
10299;SDS011;5195;48.562;9.192;2022-08-03T08:06:22;3.27;;;3.07;;
10299;SDS011;5195;48.562;9.192;2022-08-03T08:08:50;2.90;;;2.70;;
10299;SDS011;5195;48.562;9.192;2022-08-03T08:11:17;3.40;;;3.10;;
10299;SDS011;5195;48.562;9.192;2022-08-03T08:13:42;3.50;;;3.13;;
10299;SDS011;5195;48.562;9.192;2022-08-03T08:16:08;3.27;;;3.17;;
10299;SDS011;5195;48.562;9.192;2022-08-03T08:18:33;3.47;;;3.23;;
10299;SDS011;5195;48.562;9.192;2022-08-03T08:20:59;3.20;;;2.90;;
10299;SDS011;5195;48.562;9.192;2022-08-03T08:23:24;4.33;;;3.20;;
10299;SDS011;5195;48.562;9.192;2022-08-03T08:25:51;3.10;;;3.00;;
10299;SDS011;5195;48.562;9.192;2022-08-03T08:28:19;4.37;;;2.97;;
10299;SDS011;5195;48.562;9.192;2022-08-03T08:30:41;2.30;;;2.20;;
10299;SDS011;5195;48.562;9.192;2022-08-03T08:33:07;2.60;;;2.40;;
10299;SDS011;5195;48.562;9.192;2022-08-03T08:35:33;3.43;;;2.63;;
10299;SDS011;5195;48.562;9.192;2022-08-03T08:37:59;2.80;;;2.30;;
10299;SDS011;5195;48.562;9.192;2022-08-03T08:40:26;2.87;;;2.67;;
10299;SDS011;5195;48.562;9.192;2022-08-03T08:42:51;2.90;;;2.70;;
10299;SDS011;5195;48.562;9.192;2022-08-03T08:45:17;2.90;;;2.70;;
10299;SDS011;5195;48.562;9.192;2022-08-03T08:47:43;2.60;;;2.50;;
10299;SDS011;5195;48.562;9.192;2022-08-03T08:50:08;5.00;;;2.37;;
10299;SDS011;5195;48.562;9.192;2022-08-03T08:52:34;3.33;;;2.47;;
10299;SDS011;5195;48.562;9.192;2022-08-03T08:55:01;2.30;;;2.20;;
10299;SDS011;5195;48.562;9.192;2022-08-03T08:57:32;2.57;;;2.47;;
10299;SDS011;5195;48.562;9.192;2022-08-03T08:59:58;3.47;;;2.20;;
10299;SDS011;5195;48.562;9.192;2022-08-03T09:02:24;2.30;;;2.20;;
10299;SDS011;5195;48.562;9.192;2022-08-03T09:04:50;2.50;;;2.40;;
10299;SDS011;5195;48.562;9.192;2022-08-03T09:07:15;2.30;;;2.20;;
10299;SDS011;5195;48.562;9.192;2022-08-03T09:09:41;2.60;;;2.40;;
10299;SDS011;5195;48.562;9.192;2022-08-03T09:12:07;3.50;;;2.10;;
10299;SDS011;5195;48.562;9.192;2022-08-03T09:14:33;3.30;;;2.40;;
10299;SDS011;5195;48.562;9.192;2022-08-03T09:16:59;2.53;;;2.33;;
10299;SDS011;5195;48.562;9.192;2022-08-03T09:19:28;2.30;;;2.20;;
10299;SDS011;5195;48.562;9.192;2022-08-03T09:22:08;2.63;;;2.53;;
10299;SDS011;5195;48.562;9.192;2022-08-03T09:24:36;2.30;;;2.20;;
10299;SDS011;5195;48.562;9.192;2022-08-03T09:27:03;2.40;;;2.20;;
10299;SDS011;5195;48.562;9.192;2022-08-03T09:29:30;1.73;;;1.70;;
10299;SDS011;5195;48.562;9.192;2022-08-03T09:31:59;4.90;;;1.90;;
10299;SDS011;5195;48.562;9.192;2022-08-03T09:34:18;2.13;;;2.00;;
10299;SDS011;5195;48.562;9.192;2022-08-03T09:36:45;1.95;;;1.85;;
10299;SDS011;5195;48.562;9.192;2022-08-03T09:39:13;1.77;;;1.70;;
10299;SDS011;5195;48.562;9.192;2022-08-03T09:41:39;1.67;;;1.57;;
10299;SDS011;5195;48.562;9.192;2022-08-03T09:44:05;1.80;;;1.70;;
10299;SDS011;5195;48.562;9.192;2022-08-03T09:46:31;1.90;;;1.80;;
10299;SDS011;5195;48.562;9.192;2022-08-03T09:49:11;1.80;;;1.70;;
10299;SDS011;5195;48.562;9.192;2022-08-03T09:51:36;2.50;;;1.70;;
10299;SDS011;5195;48.562;9.192;2022-08-03T09:54:02;1.97;;;1.87;;
10299;SDS011;5195;48.562;9.192;2022-08-03T09:56:38;1.43;;;1.43;;
10299;SDS011;5195;48.562;9.192;2022-08-03T09:59:03;1.60;;;1.60;;
10299;SDS011;5195;48.562;9.192;2022-08-03T10:01:32;2.20;;;1.90;;
10299;SDS011;5195;48.562;9.192;2022-08-03T10:03:57;1.50;;;1.50;;
10299;SDS011;5195;48.562;9.192;2022-08-03T10:06:23;1.70;;;1.60;;
10299;SDS011;5195;48.562;9.192;2022-08-03T10:11:36;1.57;;;1.47;;
10299;SDS011;5195;48.562;9.192;2022-08-03T10:14:04;1.60;;;1.50;;
10299;SDS011;5195;48.562;9.192;2022-08-03T10:16:34;2.33;;;1.75;;
10299;SDS011;5195;48.562;9.192;2022-08-03T10:19:11;1.90;;;1.37;;
10299;SDS011;5195;48.562;9.192;2022-08-03T10:21:52;1.77;;;1.67;;
10299;SDS011;5195;48.562;9.192;2022-08-03T10:24:27;1.57;;;1.47;;
10299;SDS011;5195;48.562;9.192;2022-08-03T10:27:07;1.70;;;1.60;;
10299;SDS011;5195;48.562;9.192;2022-08-03T10:29:44;1.85;;;1.62;;
10299;SDS011;5195;48.562;9.192;2022-08-03T10:32:26;3.10;;;1.70;;
10299;SDS011;5195;48.562;9.192;2022-08-03T10:35:11;1.70;;;1.60;;
10299;SDS011;5195;48.562;9.192;2022-08-03T10:37:57;1.87;;;1.62;;
10299;SDS011;5195;48.562;9.192;2022-08-03T10:40:31;1.47;;;1.40;;
10299;SDS011;5195;48.562;9.192;2022-08-03T10:43:08;1.80;;;1.70;;
10299;SDS011;5195;48.562;9.192;2022-08-03T10:45:42;1.60;;;1.50;;
10299;SDS011;5195;48.562;9.192;2022-08-03T10:48:17;1.70;;;1.60;;
10299;SDS011;5195;48.562;9.192;2022-08-03T10:50:54;1.73;;;1.63;;
10299;SDS011;5195;48.562;9.192;2022-08-03T10:53:38;2.00;;;1.90;;
10299;SDS011;5195;48.562;9.192;2022-08-03T11:02:20;1.93;;;1.73;;
10299;SDS011;5195;48.562;9.192;2022-08-03T11:07:52;2.30;;;1.60;;
10299;SDS011;5195;48.562;9.192;2022-08-03T11:10:30;1.90;;;1.80;;
10299;SDS011;5195;48.562;9.192;2022-08-03T11:13:06;1.67;;;1.57;;
10299;SDS011;5195;48.562;9.192;2022-08-03T11:15:44;1.67;;;1.58;;
10299;SDS011;5195;48.562;9.192;2022-08-03T11:18:18;1.80;;;1.70;;
10299;SDS011;5195;48.562;9.192;2022-08-03T11:20:55;1.70;;;1.67;;
10299;SDS011;5195;48.562;9.192;2022-08-03T11:23:47;1.80;;;1.70;;
10299;SDS011;5195;48.562;9.192;2022-08-03T11:26:22;1.80;;;1.70;;
10299;SDS011;5195;48.562;9.192;2022-08-03T11:29:25;1.77;;;1.67;;
10299;SDS011;5195;48.562;9.192;2022-08-03T11:34:12;2.23;;;1.67;;
10299;SDS011;5195;48.562;9.192;2022-08-03T11:39:53;1.87;;;1.70;;
10299;SDS011;5195;48.562;9.192;2022-08-03T11:45:03;2.00;;;1.90;;
10299;SDS011;5195;48.562;9.192;2022-08-03T11:47:39;3.30;;;1.87;;
10299;SDS011;5195;48.562;9.192;2022-08-03T11:50:15;2.07;;;1.60;;
10299;SDS011;5195;48.562;9.192;2022-08-03T11:52:50;2.13;;;2.03;;
10299;SDS011;5195;48.562;9.192;2022-08-03T11:55:26;2.10;;;1.80;;
10299;SDS011;5195;48.562;9.192;2022-08-03T11:58:01;1.70;;;1.67;;
10299;SDS011;5195;48.562;9.192;2022-08-03T12:00:38;2.20;;;2.10;;
10299;SDS011;5195;48.562;9.192;2022-08-03T12:03:15;2.10;;;2.00;;
10299;SDS011;5195;48.562;9.192;2022-08-03T12:05:51;1.90;;;1.80;;
10299;SDS011;5195;48.562;9.192;2022-08-03T12:11:03;1.75;;;1.75;;
10299;SDS011;5195;48.562;9.192;2022-08-03T12:13:39;1.77;;;1.70;;
10299;SDS011;5195;48.562;9.192;2022-08-03T12:16:17;2.00;;;1.90;;
10299;SDS011;5195;48.562;9.192;2022-08-03T12:18:53;1.60;;;1.57;;
10299;SDS011;5195;48.562;9.192;2022-08-03T12:21:28;2.42;;;1.85;;
10299;SDS011;5195;48.562;9.192;2022-08-03T12:24:05;5.62;;;5.40;;
10299;SDS011;5195;48.562;9.192;2022-08-03T12:26:47;2.10;;;1.90;;
10299;SDS011;5195;48.562;9.192;2022-08-03T12:29:22;1.87;;;1.77;;
10299;SDS011;5195;48.562;9.192;2022-08-03T12:31:58;2.00;;;1.90;;
10299;SDS011;5195;48.562;9.192;2022-08-03T12:34:43;3.10;;;1.90;;
10299;SDS011;5195;48.562;9.192;2022-08-03T12:37:19;3.83;;;1.80;;
10299;SDS011;5195;48.562;9.192;2022-08-03T12:39:56;2.20;;;2.10;;
10299;SDS011;5195;48.562;9.192;2022-08-03T12:42:31;1.80;;;1.70;;
10299;SDS011;5195;48.562;9.192;2022-08-03T12:47:59;1.50;;;1.50;;
10299;SDS011;5195;48.562;9.192;2022-08-03T12:50:36;3.23;;;2.10;;
10299;SDS011;5195;48.562;9.192;2022-08-03T12:53:11;2.00;;;1.90;;
10299;SDS011;5195;48.562;9.192;2022-08-03T12:55:47;2.10;;;2.00;;
10299;SDS011;5195;48.562;9.192;2022-08-03T12:58:30;2.13;;;1.90;;
10299;SDS011;5195;48.562;9.192;2022-08-03T13:01:04;2.60;;;2.43;;
10299;SDS011;5195;48.562;9.192;2022-08-03T13:06:19;1.97;;;1.87;;
10299;SDS011;5195;48.562;9.192;2022-08-03T13:09:03;3.00;;;2.00;;
10299;SDS011;5195;48.562;9.192;2022-08-03T13:11:36;2.03;;;1.92;;
10299;SDS011;5195;48.562;9.192;2022-08-03T13:35:51;1.80;;;1.70;;
10299;SDS011;5195;48.562;9.192;2022-08-03T13:38:17;1.77;;;1.67;;
10299;SDS011;5195;48.562;9.192;2022-08-03T13:40:43;1.98;;;1.98;;
10299;SDS011;5195;48.562;9.192;2022-08-03T13:43:09;1.83;;;1.73;;
10299;SDS011;5195;48.562;9.192;2022-08-03T13:45:34;2.17;;;1.97;;
10299;SDS011;5195;48.562;9.192;2022-08-03T13:48:00;1.87;;;1.83;;
10299;SDS011;5195;48.562;9.192;2022-08-03T13:50:26;2.08;;;1.90;;
10299;SDS011;5195;48.562;9.192;2022-08-03T13:52:52;1.90;;;1.80;;
10299;SDS011;5195;48.562;9.192;2022-08-03T13:55:18;1.90;;;1.80;;
10299;SDS011;5195;48.562;9.192;2022-08-03T13:57:43;1.83;;;1.70;;
10299;SDS011;5195;48.562;9.192;2022-08-03T14:00:10;1.70;;;1.70;;
10299;SDS011;5195;48.562;9.192;2022-08-03T14:02:36;2.30;;;2.10;;
10299;SDS011;5195;48.562;9.192;2022-08-03T14:05:01;3.20;;;2.00;;
10299;SDS011;5195;48.562;9.192;2022-08-03T14:07:28;1.70;;;1.70;;
10299;SDS011;5195;48.562;9.192;2022-08-03T14:09:54;1.87;;;1.77;;
10299;SDS011;5195;48.562;9.192;2022-08-03T14:12:19;3.40;;;1.90;;
10299;SDS011;5195;48.562;9.192;2022-08-03T14:14:45;2.03;;;1.93;;
10299;SDS011;5195;48.562;9.192;2022-08-03T14:17:11;2.13;;;2.03;;
10299;SDS011;5195;48.562;9.192;2022-08-03T14:19:37;1.97;;;1.83;;
10299;SDS011;5195;48.562;9.192;2022-08-03T14:22:03;1.80;;;1.70;;
10299;SDS011;5195;48.562;9.192;2022-08-03T14:24:29;2.00;;;1.90;;
10299;SDS011;5195;48.562;9.192;2022-08-03T14:26:55;1.50;;;1.50;;
10299;SDS011;5195;48.562;9.192;2022-08-03T14:29:22;1.80;;;1.80;;
10299;SDS011;5195;48.562;9.192;2022-08-03T14:31:48;1.70;;;1.63;;
10299;SDS011;5195;48.562;9.192;2022-08-03T14:34:15;2.00;;;1.90;;
10299;SDS011;5195;48.562;9.192;2022-08-03T14:36:40;1.80;;;1.70;;
10299;SDS011;5195;48.562;9.192;2022-08-03T14:39:06;1.92;;;1.80;;
10299;SDS011;5195;48.562;9.192;2022-08-03T14:41:31;2.23;;;2.13;;
10299;SDS011;5195;48.562;9.192;2022-08-03T14:43:57;1.70;;;1.70;;
10299;SDS011;5195;48.562;9.192;2022-08-03T14:46:22;2.43;;;1.87;;
10299;SDS011;5195;48.562;9.192;2022-08-03T14:48:48;1.90;;;1.70;;
10299;SDS011;5195;48.562;9.192;2022-08-03T14:51:15;1.80;;;1.70;;
10299;SDS011;5195;48.562;9.192;2022-08-03T14:53:40;1.90;;;1.80;;
10299;SDS011;5195;48.562;9.192;2022-08-03T14:56:09;1.60;;;1.60;;
10299;SDS011;5195;48.562;9.192;2022-08-03T14:58:34;2.00;;;1.80;;
10299;SDS011;5195;48.562;9.192;2022-08-03T15:01:00;1.90;;;1.87;;
10299;SDS011;5195;48.562;9.192;2022-08-03T15:03:26;2.30;;;2.00;;
10299;SDS011;5195;48.562;9.192;2022-08-03T15:05:52;2.37;;;1.80;;
10299;SDS011;5195;48.562;9.192;2022-08-03T15:08:17;2.00;;;1.90;;
10299;SDS011;5195;48.562;9.192;2022-08-03T15:10:43;2.00;;;1.90;;
10299;SDS011;5195;48.562;9.192;2022-08-03T15:13:08;1.80;;;1.80;;
10299;SDS011;5195;48.562;9.192;2022-08-03T15:15:34;2.10;;;2.00;;
10299;SDS011;5195;48.562;9.192;2022-08-03T15:18:00;1.90;;;1.73;;
10299;SDS011;5195;48.562;9.192;2022-08-03T15:20:25;2.07;;;1.97;;
10299;SDS011;5195;48.562;9.192;2022-08-03T15:26:03;1.97;;;1.80;;
10299;SDS011;5195;48.562;9.192;2022-08-03T15:28:29;2.05;;;1.95;;
10299;SDS011;5195;48.562;9.192;2022-08-03T15:30:54;2.10;;;1.90;;
10299;SDS011;5195;48.562;9.192;2022-08-03T15:33:19;2.13;;;2.03;;
10299;SDS011;5195;48.562;9.192;2022-08-03T15:35:45;2.20;;;2.00;;
10299;SDS011;5195;48.562;9.192;2022-08-03T15:38:10;1.83;;;1.80;;
10299;SDS011;5195;48.562;9.192;2022-08-03T15:40:36;2.03;;;1.90;;
10299;SDS011;5195;48.562;9.192;2022-08-03T15:43:02;1.90;;;1.80;;
10299;SDS011;5195;48.562;9.192;2022-08-03T15:45:27;2.07;;;1.97;;
10299;SDS011;5195;48.562;9.192;2022-08-03T15:47:53;2.57;;;1.90;;
10299;SDS011;5195;48.562;9.192;2022-08-03T15:50:18;4.13;;;1.90;;
10299;SDS011;5195;48.562;9.192;2022-08-03T15:52:44;2.50;;;1.90;;
10299;SDS011;5195;48.562;9.192;2022-08-03T15:55:11;3.50;;;1.90;;
10299;SDS011;5195;48.562;9.192;2022-08-03T15:57:36;2.83;;;2.17;;
10299;SDS011;5195;48.562;9.192;2022-08-03T16:00:05;2.07;;;1.97;;
10299;SDS011;5195;48.562;9.192;2022-08-03T16:02:31;4.30;;;1.93;;
10299;SDS011;5195;48.562;9.192;2022-08-03T16:04:57;4.00;;;1.97;;
10299;SDS011;5195;48.562;9.192;2022-08-03T16:07:22;2.30;;;1.83;;
10299;SDS011;5195;48.562;9.192;2022-08-03T16:10:08;1.90;;;1.80;;
10299;SDS011;5195;48.562;9.192;2022-08-03T16:12:35;2.33;;;2.10;;